sensor_id;sensor_type;location;lat;lon;timestamp;pressure;altitude;pressure_sealevel;temperature;humidity
47716;BME280;33476;50.984;3.538;2022-12-18T00:01:27;102722.81;;;-0.52;60.74
47716;BME280;33476;50.984;3.538;2022-12-18T00:03:55;102735.59;;;-0.53;60.76
47716;BME280;33476;50.984;3.538;2022-12-18T00:06:21;102730.47;;;-0.53;60.72
47716;BME280;33476;50.984;3.538;2022-12-18T00:08:47;102724.41;;;-0.57;60.25
47716;BME280;33476;50.984;3.538;2022-12-18T00:11:17;102722.56;;;-0.61;60.44
47716;BME280;33476;50.984;3.538;2022-12-18T00:13:43;102717.50;;;-0.58;60.22
47716;BME280;33476;50.984;3.538;2022-12-18T00:16:12;102724.44;;;-0.55;60.20
47716;BME280;33476;50.984;3.538;2022-12-18T00:18:38;102711.63;;;-0.54;60.05
47716;BME280;33476;50.984;3.538;2022-12-18T00:21:05;102719.38;;;-0.52;60.11
47716;BME280;33476;50.984;3.538;2022-12-18T00:23:32;102708.28;;;-0.51;60.14
47716;BME280;33476;50.984;3.538;2022-12-18T00:26:02;102711.63;;;-0.54;59.92
47716;BME280;33476;50.984;3.538;2022-12-18T00:28:28;102720.25;;;-0.52;59.80
47716;BME280;33476;50.984;3.538;2022-12-18T00:31:04;102722.63;;;-0.58;59.66
47716;BME280;33476;50.984;3.538;2022-12-18T00:33:29;102718.41;;;-0.58;59.54
47716;BME280;33476;50.984;3.538;2022-12-18T00:36:09;102718.25;;;-0.62;59.38
47716;BME280;33476;50.984;3.538;2022-12-18T00:38:36;102719.06;;;-0.63;59.47
47716;BME280;33476;50.984;3.538;2022-12-18T00:41:02;102718.91;;;-0.69;59.23
47716;BME280;33476;50.984;3.538;2022-12-18T00:43:28;102717.19;;;-0.69;58.87
47716;BME280;33476;50.984;3.538;2022-12-18T00:45:53;102717.09;;;-0.73;58.94
47716;BME280;33476;50.984;3.538;2022-12-18T00:48:19;102720.38;;;-0.77;59.20
47716;BME280;33476;50.984;3.538;2022-12-18T00:50:45;102722.84;;;-0.80;58.99
47716;BME280;33476;50.984;3.538;2022-12-18T00:53:12;102706.44;;;-0.86;58.92
47716;BME280;33476;50.984;3.538;2022-12-18T00:55:39;102716.63;;;-0.89;58.74
47716;BME280;33476;50.984;3.538;2022-12-18T00:58:04;102711.47;;;-0.90;58.58
47716;BME280;33476;50.984;3.538;2022-12-18T01:00:30;102701.97;;;-0.93;58.47
47716;BME280;33476;50.984;3.538;2022-12-18T01:02:55;102695.84;;;-0.98;58.38
47716;BME280;33476;50.984;3.538;2022-12-18T01:05:20;102699.09;;;-1.03;58.10
47716;BME280;33476;50.984;3.538;2022-12-18T01:07:46;102701.69;;;-1.02;58.37
47716;BME280;33476;50.984;3.538;2022-12-18T01:10:12;102699.09;;;-1.03;57.99
47716;BME280;33476;50.984;3.538;2022-12-18T01:12:38;102705.00;;;-1.06;57.90
47716;BME280;33476;50.984;3.538;2022-12-18T01:15:06;102706.78;;;-1.03;57.90
47716;BME280;33476;50.984;3.538;2022-12-18T01:17:31;102711.19;;;-0.99;58.00
47716;BME280;33476;50.984;3.538;2022-12-18T01:19:57;102723.88;;;-1.04;58.26
47716;BME280;33476;50.984;3.538;2022-12-18T01:22:22;102723.03;;;-1.03;58.08
47716;BME280;33476;50.984;3.538;2022-12-18T01:24:48;102723.03;;;-1.03;57.84
47716;BME280;33476;50.984;3.538;2022-12-18T01:27:13;102729.78;;;-1.06;57.55
47716;BME280;33476;50.984;3.538;2022-12-18T01:29:39;102729.72;;;-1.08;57.71
47716;BME280;33476;50.984;3.538;2022-12-18T01:32:04;102734.75;;;-1.11;57.41
47716;BME280;33476;50.984;3.538;2022-12-18T01:34:29;102733.06;;;-1.10;57.31
47716;BME280;33476;50.984;3.538;2022-12-18T01:36:55;102739.97;;;-1.08;57.51
47716;BME280;33476;50.984;3.538;2022-12-18T01:39:20;102737.31;;;-1.11;57.30
47716;BME280;33476;50.984;3.538;2022-12-18T01:41:46;102733.72;;;-1.16;57.57
47716;BME280;33476;50.984;3.538;2022-12-18T01:44:56;102725.13;;;-1.18;57.48
47716;BME280;33476;50.984;3.538;2022-12-18T01:49:54;102730.25;;;-1.18;57.39
47716;BME280;33476;50.984;3.538;2022-12-18T01:52:21;102736.13;;;-1.22;57.29
47716;BME280;33476;50.984;3.538;2022-12-18T01:54:47;102730.75;;;-1.30;57.22
47716;BME280;33476;50.984;3.538;2022-12-18T01:57:14;102727.22;;;-1.33;57.16
47716;BME280;33476;50.984;3.538;2022-12-18T01:59:40;102722.03;;;-1.35;57.18
47716;BME280;33476;50.984;3.538;2022-12-18T02:02:07;102718.66;;;-1.34;57.01
47716;BME280;33476;50.984;3.538;2022-12-18T02:04:33;102723.69;;;-1.37;56.68
47716;BME280;33476;50.984;3.538;2022-12-18T02:07:25;102721.03;;;-1.40;57.52
47716;BME280;33476;50.984;3.538;2022-12-18T02:10:15;102721.72;;;-1.46;57.08
47716;BME280;33476;50.984;3.538;2022-12-18T02:15:20;102697.63;;;-1.51;56.88
47716;BME280;33476;50.984;3.538;2022-12-18T02:17:56;102693.19;;;-1.56;56.75
47716;BME280;33476;50.984;3.538;2022-12-18T02:20:49;102679.34;;;-1.61;56.98
47716;BME280;33476;50.984;3.538;2022-12-18T02:26:19;102675.84;;;-1.65;56.81
47716;BME280;33476;50.984;3.538;2022-12-18T02:29:08;102674.16;;;-1.64;57.14
47716;BME280;33476;50.984;3.538;2022-12-18T02:31:40;102665.59;;;-1.65;56.61
47716;BME280;33476;50.984;3.538;2022-12-18T02:34:09;102659.47;;;-1.68;56.77
47716;BME280;33476;50.984;3.538;2022-12-18T02:36:36;102657.75;;;-1.70;56.95
47716;BME280;33476;50.984;3.538;2022-12-18T02:39:05;102650.88;;;-1.71;56.70
47716;BME280;33476;50.984;3.538;2022-12-18T02:41:32;102647.53;;;-1.68;56.79
47716;BME280;33476;50.984;3.538;2022-12-18T02:44:01;102649.28;;;-1.67;56.53
47716;BME280;33476;50.984;3.538;2022-12-18T02:46:28;102650.09;;;-1.68;56.39
47716;BME280;33476;50.984;3.538;2022-12-18T02:49:04;102656.97;;;-1.67;56.55
47716;BME280;33476;50.984;3.538;2022-12-18T02:52:01;102657.03;;;-1.65;56.47
47716;BME280;33476;50.984;3.538;2022-12-18T02:57:19;102668.91;;;-1.67;56.21
47716;BME280;33476;50.984;3.538;2022-12-18T02:59:58;102663.66;;;-1.72;56.20
47716;BME280;33476;50.984;3.538;2022-12-18T03:02:31;102664.47;;;-1.73;56.23
47716;BME280;33476;50.984;3.538;2022-12-18T03:07:44;102656.63;;;-1.78;56.30
47716;BME280;33476;50.984;3.538;2022-12-18T03:10:16;102656.53;;;-1.81;56.08
47716;BME280;33476;50.984;3.538;2022-12-18T03:12:52;102659.59;;;-1.65;56.11
47716;BME280;33476;50.984;3.538;2022-12-18T03:15:23;102652.34;;;-1.79;56.21
47716;BME280;33476;50.984;3.538;2022-12-18T03:17:59;102654.72;;;-1.83;56.20
47716;BME280;33476;50.984;3.538;2022-12-18T03:20:26;102662.38;;;-1.85;56.18
47716;BME280;33476;50.984;3.538;2022-12-18T03:22:59;102652.91;;;-1.87;56.09
47716;BME280;33476;50.984;3.538;2022-12-18T03:25:27;102649.44;;;-1.89;55.99
47716;BME280;33476;50.984;3.538;2022-12-18T03:27:56;102640.56;;;-1.99;56.14
47716;BME280;33476;50.984;3.538;2022-12-18T03:30:26;102644.63;;;-2.06;56.42
47716;BME280;33476;50.984;3.538;2022-12-18T03:33:00;102647.94;;;-2.08;56.21
47716;BME280;33476;50.984;3.538;2022-12-18T03:35:30;102654.69;;;-2.10;55.99
47716;BME280;33476;50.984;3.538;2022-12-18T03:37:56;102654.69;;;-2.10;56.12
47716;BME280;33476;50.984;3.538;2022-12-18T03:40:28;102648.63;;;-2.14;56.58
47716;BME280;33476;50.984;3.538;2022-12-18T03:43:10;102647.69;;;-2.16;56.20
47716;BME280;33476;50.984;3.538;2022-12-18T03:45:42;102646.94;;;-2.13;56.33
47716;BME280;33476;50.984;3.538;2022-12-18T03:48:34;102652.00;;;-2.15;56.44
47716;BME280;33476;50.984;3.538;2022-12-18T03:51:10;102649.31;;;-2.18;56.03
47716;BME280;33476;50.984;3.538;2022-12-18T03:53:53;102643.91;;;-2.27;55.86
47716;BME280;33476;50.984;3.538;2022-12-18T03:56:22;102644.81;;;-2.25;56.22
47716;BME280;33476;50.984;3.538;2022-12-18T03:58:52;102633.75;;;-2.24;55.91
47716;BME280;33476;50.984;3.538;2022-12-18T04:01:20;102634.63;;;-2.23;55.97
47716;BME280;33476;50.984;3.538;2022-12-18T04:03:48;102639.09;;;-2.18;55.92
47716;BME280;33476;50.984;3.538;2022-12-18T04:06:15;102646.97;;;-2.12;55.96
47716;BME280;33476;50.984;3.538;2022-12-18T04:08:42;102641.25;;;-2.05;55.79
47716;BME280;33476;50.984;3.538;2022-12-18T04:11:08;102632.00;;;-2.00;56.29
47716;BME280;33476;50.984;3.538;2022-12-18T04:13:38;102636.22;;;-2.02;56.05
47716;BME280;33476;50.984;3.538;2022-12-18T04:16:03;102636.25;;;-2.00;56.04
47716;BME280;33476;50.984;3.538;2022-12-18T04:18:29;102643.28;;;-1.94;56.29
47716;BME280;33476;50.984;3.538;2022-12-18T04:20:54;102642.44;;;-1.93;56.52
47716;BME280;33476;50.984;3.538;2022-12-18T04:23:20;102648.66;;;-1.87;56.44
47716;BME280;33476;50.984;3.538;2022-12-18T04:25:46;102646.19;;;-1.84;56.68
47716;BME280;33476;50.984;3.538;2022-12-18T04:28:12;102650.56;;;-1.81;56.69
47716;BME280;33476;50.984;3.538;2022-12-18T04:30:37;102648.13;;;-1.77;56.67
47716;BME280;33476;50.984;3.538;2022-12-18T04:33:03;102643.81;;;-1.78;56.97
47716;BME280;33476;50.984;3.538;2022-12-18T04:35:28;102640.44;;;-1.77;56.76
47716;BME280;33476;50.984;3.538;2022-12-18T04:37:53;102642.22;;;-1.74;56.86
47716;BME280;33476;50.984;3.538;2022-12-18T04:40:18;102640.63;;;-1.71;56.95
47716;BME280;33476;50.984;3.538;2022-12-18T04:42:44;102644.97;;;-1.68;57.23
47716;BME280;33476;50.984;3.538;2022-12-18T04:45:09;102637.28;;;-1.68;57.19
47716;BME280;33476;50.984;3.538;2022-12-18T04:47:35;102644.22;;;-1.65;57.18
47716;BME280;33476;50.984;3.538;2022-12-18T04:50:00;102638.28;;;-1.64;56.73
47716;BME280;33476;50.984;3.538;2022-12-18T04:52:25;102645.84;;;-1.67;57.05
47716;BME280;33476;50.984;3.538;2022-12-18T04:54:51;102644.94;;;-1.70;57.02
47716;BME280;33476;50.984;3.538;2022-12-18T04:57:16;102646.63;;;-1.70;56.89
47716;BME280;33476;50.984;3.538;2022-12-18T04:59:43;102643.97;;;-1.73;57.32
47716;BME280;33476;50.984;3.538;2022-12-18T05:02:09;102640.44;;;-1.77;57.05
47716;BME280;33476;50.984;3.538;2022-12-18T05:04:34;102646.22;;;-1.82;56.79
47716;BME280;33476;50.984;3.538;2022-12-18T05:06:59;102646.06;;;-1.88;56.71
47716;BME280;33476;50.984;3.538;2022-12-18T05:09:25;102640.88;;;-1.90;56.84
47716;BME280;33476;50.984;3.538;2022-12-18T05:11:50;102630.56;;;-1.91;56.83
47716;BME280;33476;50.984;3.538;2022-12-18T05:14:15;102634.78;;;-1.93;56.44
47716;BME280;33476;50.984;3.538;2022-12-18T05:16:41;102631.38;;;-1.92;56.68
47716;BME280;33476;50.984;3.538;2022-12-18T05:19:06;102636.63;;;-1.89;56.45
47716;BME280;33476;50.984;3.538;2022-12-18T05:21:31;102634.94;;;-1.89;56.80
47716;BME280;33476;50.984;3.538;2022-12-18T05:23:57;102631.56;;;-1.88;56.55
47716;BME280;33476;50.984;3.538;2022-12-18T05:26:22;102639.19;;;-1.89;56.39
47716;BME280;33476;50.984;3.538;2022-12-18T05:28:48;102646.88;;;-1.89;56.63
47716;BME280;33476;50.984;3.538;2022-12-18T05:31:13;102657.03;;;-1.91;56.46
47716;BME280;33476;50.984;3.538;2022-12-18T05:33:39;102654.47;;;-1.91;56.54
47716;BME280;33476;50.984;3.538;2022-12-18T05:36:06;102658.72;;;-1.91;56.35
47716;BME280;33476;50.984;3.538;2022-12-18T05:38:34;102658.69;;;-1.93;56.47
47716;BME280;33476;50.984;3.538;2022-12-18T05:40:59;102649.34;;;-1.91;56.48
47716;BME280;33476;50.984;3.538;2022-12-18T05:43:26;102651.91;;;-1.91;56.57
47716;BME280;33476;50.984;3.538;2022-12-18T05:45:52;102639.06;;;-1.92;56.45
47716;BME280;33476;50.984;3.538;2022-12-18T05:48:18;102641.53;;;-1.95;55.93
47716;BME280;33476;50.984;3.538;2022-12-18T05:50:46;102642.25;;;-2.00;56.38
47716;BME280;33476;50.984;3.538;2022-12-18T05:53:13;102636.25;;;-2.00;56.61
47716;BME280;33476;50.984;3.538;2022-12-18T05:55:40;102630.22;;;-2.02;55.99
47716;BME280;33476;50.984;3.538;2022-12-18T05:58:07;102620.75;;;-2.05;56.49
47716;BME280;33476;50.984;3.538;2022-12-18T06:00:36;102617.34;;;-2.05;56.23
47716;BME280;33476;50.984;3.538;2022-12-18T06:03:05;102621.63;;;-2.04;56.46
47716;BME280;33476;50.984;3.538;2022-12-18T06:05:35;102612.16;;;-2.07;56.17
47716;BME280;33476;50.984;3.538;2022-12-18T06:08:01;102618.28;;;-2.02;55.99
47716;BME280;33476;50.984;3.538;2022-12-18T06:10:26;102624.28;;;-2.01;56.13
47716;BME280;33476;50.984;3.538;2022-12-18T06:12:52;102617.50;;;-1.99;55.97
47716;BME280;33476;50.984;3.538;2022-12-18T06:15:17;102606.41;;;-2.00;55.97
47716;BME280;33476;50.984;3.538;2022-12-18T06:17:42;102598.63;;;-2.03;55.97
47716;BME280;33476;50.984;3.538;2022-12-18T06:20:08;102601.03;;;-2.07;56.31
47716;BME280;33476;50.984;3.538;2022-12-18T06:22:33;102595.00;;;-2.09;56.29
47716;BME280;33476;50.984;3.538;2022-12-18T06:25:00;102599.25;;;-2.10;56.08
47716;BME280;33476;50.984;3.538;2022-12-18T06:27:25;102595.03;;;-2.08;56.21
47716;BME280;33476;50.984;3.538;2022-12-18T06:29:50;102599.47;;;-2.04;56.11
47716;BME280;33476;50.984;3.538;2022-12-18T06:32:16;102595.25;;;-2.02;55.97
47716;BME280;33476;50.984;3.538;2022-12-18T06:34:41;102587.53;;;-2.03;56.18
47716;BME280;33476;50.984;3.538;2022-12-18T06:37:07;102588.38;;;-2.03;56.17
47716;BME280;33476;50.984;3.538;2022-12-18T06:39:32;102579.88;;;-2.02;56.23
47716;BME280;33476;50.984;3.538;2022-12-18T06:41:57;102574.88;;;-1.99;56.10
47716;BME280;33476;50.984;3.538;2022-12-18T06:44:23;102576.63;;;-1.98;55.73
47716;BME280;33476;50.984;3.538;2022-12-18T06:46:48;102564.56;;;-2.00;56.24
47716;BME280;33476;50.984;3.538;2022-12-18T06:49:13;102567.09;;;-2.02;56.02
47716;BME280;33476;50.984;3.538;2022-12-18T06:51:39;102555.88;;;-2.05;56.24
47716;BME280;33476;50.984;3.538;2022-12-18T06:54:04;102553.28;;;-2.07;55.99
47716;BME280;33476;50.984;3.538;2022-12-18T06:56:30;102548.16;;;-2.07;56.23
47716;BME280;33476;50.984;3.538;2022-12-18T06:58:55;102547.22;;;-2.09;56.09
47716;BME280;33476;50.984;3.538;2022-12-18T07:01:21;102537.81;;;-2.10;56.14
47716;BME280;33476;50.984;3.538;2022-12-18T07:03:51;102530.09;;;-2.11;55.87
47716;BME280;33476;50.984;3.538;2022-12-18T07:06:19;102525.84;;;-2.11;56.02
47716;BME280;33476;50.984;3.538;2022-12-18T07:08:46;102513.91;;;-2.10;55.92
47716;BME280;33476;50.984;3.538;2022-12-18T07:11:12;102507.97;;;-2.09;55.84
47716;BME280;33476;50.984;3.538;2022-12-18T07:13:38;102495.06;;;-2.12;55.93
47716;BME280;33476;50.984;3.538;2022-12-18T07:16:08;102496.53;;;-2.20;56.21
47716;BME280;33476;50.984;3.538;2022-12-18T07:18:34;102488.94;;;-2.17;56.16
47716;BME280;33476;50.984;3.538;2022-12-18T07:21:04;102481.22;;;-2.19;56.28
47716;BME280;33476;50.984;3.538;2022-12-18T07:23:31;102491.53;;;-2.16;56.08
47716;BME280;33476;50.984;3.538;2022-12-18T07:26:00;102482.91;;;-2.19;56.21
47716;BME280;33476;50.984;3.538;2022-12-18T07:28:26;102479.69;;;-2.14;56.68
47716;BME280;33476;50.984;3.538;2022-12-18T07:30:51;102483.84;;;-2.16;56.76
47716;BME280;33476;50.984;3.538;2022-12-18T07:33:16;102475.31;;;-2.16;56.89
47716;BME280;33476;50.984;3.538;2022-12-18T07:35:42;102478.72;;;-2.16;56.75
47716;BME280;33476;50.984;3.538;2022-12-18T07:38:07;102469.25;;;-2.20;57.15
47716;BME280;33476;50.984;3.538;2022-12-18T07:40:32;102475.38;;;-2.15;56.91
47716;BME280;33476;50.984;3.538;2022-12-18T07:42:58;102486.59;;;-2.10;56.75
47716;BME280;33476;50.984;3.538;2022-12-18T07:45:23;102483.34;;;-2.06;56.99
47716;BME280;33476;50.984;3.538;2022-12-18T07:47:48;102479.03;;;-2.07;57.09
47716;BME280;33476;50.984;3.538;2022-12-18T07:50:14;102483.38;;;-2.04;56.93
47716;BME280;33476;50.984;3.538;2022-12-18T07:52:39;102487.81;;;-1.99;56.84
47716;BME280;33476;50.984;3.538;2022-12-18T07:55:05;102492.75;;;-2.05;57.00
47716;BME280;33476;50.984;3.538;2022-12-18T07:57:30;102491.84;;;-2.07;57.05
47716;BME280;33476;50.984;3.538;2022-12-18T07:59:56;102490.94;;;-2.07;57.19
47716;BME280;33476;50.984;3.538;2022-12-18T08:02:21;102489.44;;;-2.01;57.63
47716;BME280;33476;50.984;3.538;2022-12-18T08:04:46;102488.69;;;-1.98;57.15
47716;BME280;33476;50.984;3.538;2022-12-18T08:07:12;102504.13;;;-1.95;57.30
47716;BME280;33476;50.984;3.538;2022-12-18T08:09:38;102494.91;;;-1.90;56.63
47716;BME280;33476;50.984;3.538;2022-12-18T08:12:03;102489.13;;;-1.83;57.28
47716;BME280;33476;50.984;3.538;2022-12-18T08:14:28;102485.91;;;-1.76;57.08
47716;BME280;33476;50.984;3.538;2022-12-18T08:16:54;102489.53;;;-1.69;57.02
47716;BME280;33476;50.984;3.538;2022-12-18T08:19:19;102491.41;;;-1.63;56.99
47716;BME280;33476;50.984;3.538;2022-12-18T08:21:44;102493.22;;;-1.59;56.91
47716;BME280;33476;50.984;3.538;2022-12-18T08:24:10;102492.41;;;-1.58;57.02
47716;BME280;33476;50.984;3.538;2022-12-18T08:26:36;102494.19;;;-1.56;56.75
47716;BME280;33476;50.984;3.538;2022-12-18T08:29:01;102484.94;;;-1.51;57.25
47716;BME280;33476;50.984;3.538;2022-12-18T08:31:29;102482.59;;;-1.43;57.17
47716;BME280;33476;50.984;3.538;2022-12-18T08:33:55;102477.69;;;-1.35;57.22
47716;BME280;33476;50.984;3.538;2022-12-18T08:36:21;102476.09;;;-1.32;57.25
47716;BME280;33476;50.984;3.538;2022-12-18T08:38:46;102479.50;;;-1.31;57.18
47716;BME280;33476;50.984;3.538;2022-12-18T08:41:13;102479.44;;;-1.33;57.47
47716;BME280;33476;50.984;3.538;2022-12-18T08:43:39;102472.75;;;-1.28;57.74
47716;BME280;33476;50.984;3.538;2022-12-18T08:46:25;102453.28;;;-1.21;57.63
47716;BME280;33476;50.984;3.538;2022-12-18T08:48:52;102447.34;;;-1.20;57.60
47716;BME280;33476;50.984;3.538;2022-12-18T08:51:18;102450.03;;;-1.16;57.62
47716;BME280;33476;50.984;3.538;2022-12-18T08:53:44;102459.50;;;-1.13;57.68
47716;BME280;33476;50.984;3.538;2022-12-18T08:56:11;102468.91;;;-1.12;57.60
47716;BME280;33476;50.984;3.538;2022-12-18T08:58:37;102474.28;;;-1.03;57.91
47716;BME280;33476;50.984;3.538;2022-12-18T09:01:04;102475.34;;;-0.95;57.71
47716;BME280;33476;50.984;3.538;2022-12-18T09:03:29;102467.84;;;-0.87;57.73
47716;BME280;33476;50.984;3.538;2022-12-18T09:05:55;102477.50;;;-0.77;57.79
47716;BME280;33476;50.984;3.538;2022-12-18T09:08:20;102471.75;;;-0.68;57.43
47716;BME280;33476;50.984;3.538;2022-12-18T09:10:47;102458.22;;;-0.61;57.41
47716;BME280;33476;50.984;3.538;2022-12-18T09:13:14;102454.94;;;-0.55;57.57
47716;BME280;33476;50.984;3.538;2022-12-18T09:15:41;102455.88;;;-0.52;57.60
47716;BME280;33476;50.984;3.538;2022-12-18T09:18:08;102457.69;;;-0.49;57.50
47716;BME280;33476;50.984;3.538;2022-12-18T09:20:34;102455.00;;;-0.52;57.99
47716;BME280;33476;50.984;3.538;2022-12-18T09:22:59;102459.28;;;-0.53;58.18
47716;BME280;33476;50.984;3.538;2022-12-18T09:25:24;102459.31;;;-0.51;58.24
47716;BME280;33476;50.984;3.538;2022-12-18T09:27:50;102452.59;;;-0.46;58.20
47716;BME280;33476;50.984;3.538;2022-12-18T09:30:15;102438.00;;;-0.49;58.40
47716;BME280;33476;50.984;3.538;2022-12-18T09:32:40;102442.38;;;-0.45;58.26
47716;BME280;33476;50.984;3.538;2022-12-18T09:35:06;102451.88;;;-0.41;58.42
47716;BME280;33476;50.984;3.538;2022-12-18T09:37:31;102444.19;;;-0.41;58.31
47716;BME280;33476;50.984;3.538;2022-12-18T09:39:57;102438.22;;;-0.40;58.46
47716;BME280;33476;50.984;3.538;2022-12-18T09:42:22;102437.44;;;-0.36;58.67
47716;BME280;33476;50.984;3.538;2022-12-18T09:44:50;102426.22;;;-0.41;58.80
47716;BME280;33476;50.984;3.538;2022-12-18T09:49:52;102415.16;;;-0.37;59.10
47716;BME280;33476;50.984;3.538;2022-12-18T09:52:20;102410.25;;;-0.26;58.85
47716;BME280;33476;50.984;3.538;2022-12-18T09:54:51;102413.81;;;-0.21;58.71
47716;BME280;33476;50.984;3.538;2022-12-18T09:57:21;102408.91;;;-0.10;59.08
47716;BME280;33476;50.984;3.538;2022-12-18T09:59:54;102405.59;;;-0.05;58.80
47716;BME280;33476;50.984;3.538;2022-12-18T10:02:22;102420.34;;;0.04;58.75
47716;BME280;33476;50.984;3.538;2022-12-18T10:05:07;102421.31;;;0.09;58.82
47716;BME280;33476;50.984;3.538;2022-12-18T10:10:36;102414.63;;;0.17;58.49
47716;BME280;33476;50.984;3.538;2022-12-18T10:16:03;102406.13;;;0.21;59.01
47716;BME280;33476;50.984;3.538;2022-12-18T10:18:44;102406.19;;;0.24;59.01
47716;BME280;33476;50.984;3.538;2022-12-18T10:21:14;102407.19;;;0.33;58.94
47716;BME280;33476;50.984;3.538;2022-12-18T10:26:12;102400.78;;;0.54;58.38
47716;BME280;33476;50.984;3.538;2022-12-18T10:28:39;102394.78;;;0.55;58.11
47716;BME280;33476;50.984;3.538;2022-12-18T10:31:17;102402.44;;;0.51;58.68
47716;BME280;33476;50.984;3.538;2022-12-18T10:33:43;102400.88;;;0.59;58.73
47716;BME280;33476;50.984;3.538;2022-12-18T10:36:09;102401.75;;;0.61;59.04
47716;BME280;33476;50.984;3.538;2022-12-18T10:38:35;102398.31;;;0.61;59.14
47716;BME280;33476;50.984;3.538;2022-12-18T10:41:03;102403.47;;;0.61;59.55
47716;BME280;33476;50.984;3.538;2022-12-18T10:48:26;102393.19;;;0.61;59.59
47716;BME280;33476;50.984;3.538;2022-12-18T10:50:52;102388.94;;;0.64;59.78
47716;BME280;33476;50.984;3.538;2022-12-18T10:53:24;102393.25;;;0.65;59.62
47716;BME280;33476;50.984;3.538;2022-12-18T10:55:52;102385.63;;;0.70;59.45
47716;BME280;33476;50.984;3.538;2022-12-18T10:58:27;102392.47;;;0.69;59.81
47716;BME280;33476;50.984;3.538;2022-12-18T11:01:14;102385.69;;;0.73;59.86
47716;BME280;33476;50.984;3.538;2022-12-18T11:03:44;102369.47;;;0.77;59.54
47716;BME280;33476;50.984;3.538;2022-12-18T11:06:15;102372.81;;;0.73;59.44
47716;BME280;33476;50.984;3.538;2022-12-18T11:08:43;102360.94;;;0.79;59.51
47716;BME280;33476;50.984;3.538;2022-12-18T11:11:20;102360.88;;;0.75;59.57
47716;BME280;33476;50.984;3.538;2022-12-18T11:14:05;102360.16;;;0.83;59.16
47716;BME280;33476;50.984;3.538;2022-12-18T11:16:43;102352.50;;;0.87;58.83
47716;BME280;33476;50.984;3.538;2022-12-18T11:19:20;102349.09;;;0.89;58.90
47716;BME280;33476;50.984;3.538;2022-12-18T11:21:47;102350.81;;;0.90;58.80
47716;BME280;33476;50.984;3.538;2022-12-18T11:24:27;102349.09;;;0.89;58.88
47716;BME280;33476;50.984;3.538;2022-12-18T11:26:54;102348.44;;;1.01;58.69
47716;BME280;33476;50.984;3.538;2022-12-18T11:29:35;102348.38;;;0.99;59.22
47716;BME280;33476;50.984;3.538;2022-12-18T11:35:03;102337.47;;;1.14;58.82
47716;BME280;33476;50.984;3.538;2022-12-18T11:37:29;102346.13;;;1.16;58.52
47716;BME280;33476;50.984;3.538;2022-12-18T11:39:59;102344.41;;;1.17;58.48
47716;BME280;33476;50.984;3.538;2022-12-18T11:42:41;102334.91;;;1.14;58.68
47716;BME280;33476;50.984;3.538;2022-12-18T11:53:02;102325.53;;;1.16;59.10
47716;BME280;33476;50.984;3.538;2022-12-18T11:55:42;102322.91;;;1.15;58.56
47716;BME280;33476;50.984;3.538;2022-12-18T12:03:55;102319.53;;;1.17;58.50
47716;BME280;33476;50.984;3.538;2022-12-18T12:06:34;102316.22;;;1.24;58.36
47716;BME280;33476;50.984;3.538;2022-12-18T12:09:36;102283.66;;;1.29;58.73
47716;BME280;33476;50.984;3.538;2022-12-18T12:20:22;102275.06;;;1.27;58.84
47716;BME280;33476;50.984;3.538;2022-12-18T12:25:47;102269.94;;;1.32;59.05
47716;BME280;33476;50.984;3.538;2022-12-18T12:34:18;102279.56;;;1.44;58.33
47716;BME280;33476;50.984;3.538;2022-12-18T12:39:36;102288.25;;;1.50;58.66
47716;BME280;33476;50.984;3.538;2022-12-18T12:42:04;102289.13;;;1.54;58.23
47716;BME280;33476;50.984;3.538;2022-12-18T12:44:55;102282.31;;;1.57;58.19
47716;BME280;33476;50.984;3.538;2022-12-18T12:47:35;102279.81;;;1.63;58.21
47716;BME280;33476;50.984;3.538;2022-12-18T12:50:05;102272.19;;;1.73;58.14
47716;BME280;33476;50.984;3.538;2022-12-18T12:52:40;102265.19;;;1.62;57.81
47716;BME280;33476;50.984;3.538;2022-12-18T12:55:16;102277.22;;;1.62;58.50
47716;BME280;33476;50.984;3.538;2022-12-18T12:57:52;102269.56;;;1.66;58.50
47716;BME280;33476;50.984;3.538;2022-12-18T13:00:20;102265.28;;;1.70;58.20
47716;BME280;33476;50.984;3.538;2022-12-18T13:02:59;102261.88;;;1.71;57.96
47716;BME280;33476;50.984;3.538;2022-12-18T13:08:06;102261.06;;;1.75;58.25
47716;BME280;33476;50.984;3.538;2022-12-18T13:10:42;102261.78;;;1.65;57.89
47716;BME280;33476;50.984;3.538;2022-12-18T13:15:42;102258.34;;;1.64;58.15
47716;BME280;33476;50.984;3.538;2022-12-18T13:20:36;102241.28;;;1.73;58.06
47716;BME280;33476;50.984;3.538;2022-12-18T13:25:56;102233.50;;;1.68;58.19
47716;BME280;33476;50.984;3.538;2022-12-18T13:28:50;102229.13;;;1.61;58.29
47716;BME280;33476;50.984;3.538;2022-12-18T13:36:43;102228.31;;;1.63;58.01
47716;BME280;33476;50.984;3.538;2022-12-18T13:41:34;102224.97;;;1.74;58.23
47716;BME280;33476;50.984;3.538;2022-12-18T13:46:47;102220.75;;;1.79;58.29
47716;BME280;33476;50.984;3.538;2022-12-18T13:51:48;102206.16;;;1.81;58.27
47716;BME280;33476;50.984;3.538;2022-12-18T13:54:19;102202.72;;;1.79;58.12
47716;BME280;33476;50.984;3.538;2022-12-18T13:56:47;102184.66;;;1.76;58.29
47716;BME280;33476;50.984;3.538;2022-12-18T13:59:14;102183.81;;;1.75;58.23
47716;BME280;33476;50.984;3.538;2022-12-18T14:01:50;102181.16;;;1.71;58.69
47716;BME280;33476;50.984;3.538;2022-12-18T14:04:27;102173.50;;;1.75;58.41
47716;BME280;33476;50.984;3.538;2022-12-18T14:07:14;102178.66;;;1.77;58.63
47716;BME280;33476;50.984;3.538;2022-12-18T14:10:00;102181.31;;;1.86;58.29
47716;BME280;33476;50.984;3.538;2022-12-18T14:12:29;102167.59;;;1.90;57.58
47716;BME280;33476;50.984;3.538;2022-12-18T14:15:31;102166.78;;;1.92;58.08
47716;BME280;33476;50.984;3.538;2022-12-18T14:18:29;102154.75;;;1.91;58.24
47716;BME280;33476;50.984;3.538;2022-12-18T14:20:58;102153.06;;;1.93;57.87
47716;BME280;33476;50.984;3.538;2022-12-18T14:23:39;102158.16;;;1.89;58.27
47716;BME280;33476;50.984;3.538;2022-12-18T14:26:21;102152.13;;;1.85;58.64
47716;BME280;33476;50.984;3.538;2022-12-18T14:28:47;102148.72;;;1.89;58.38
47716;BME280;33476;50.984;3.538;2022-12-18T14:31:20;102137.50;;;1.83;58.55
47716;BME280;33476;50.984;3.538;2022-12-18T14:33:46;102141.81;;;1.85;58.67